Pant, United Kingdom
Current Conditions -  °F | °C
As of 12:50 PM on Tuesday 21 Oct 2014 (Local Time) from EGOS Reporting Station
Scattered Clouds Scattered Clouds  
Wind Chill: 54°   Ceiling: Unl
Heat Index: 54°   Visibility: 6mi
Dew Point: 39°   Wind: 24mph
Humidity: 58%   Direction: 280°W
Pressure: 29.71"   Gusts: 41mph
Location:  52.78°N, 3.07°W
Report Text: EGOS 211150Z 28021G36KT 9999 FEW020CB SCT028 12/04 Q1006 BLU TEMPO 7000 SHRA SCT020CB WHT
Loading
Personal Weather Stations






























Interactive Weather Map New forecast layout! Learn more

10-Day Weather Forecast

Advertisements
Track Severe Weather on mobile